createdAt,value
2022-10-25T13:37:33.452Z,2.30
2022-10-25T13:40:04.384Z,2.20
2022-10-25T13:42:37.024Z,2.73
2022-10-25T13:45:03.638Z,2.23
2022-10-25T13:47:44.600Z,2.40
2022-10-25T13:50:36.227Z,1.97
2022-10-25T13:53:31.431Z,2.57
2022-10-25T13:56:14.891Z,3.17
2022-10-25T13:58:53.070Z,3.50
2022-10-25T14:01:21.441Z,2.83
2022-10-25T14:03:57.447Z,1.90
2022-10-25T14:06:29.133Z,4.13
2022-10-25T14:09:33.616Z,2.00
2022-10-25T14:12:06.508Z,2.10
2022-10-25T14:14:56.144Z,2.60
2022-10-25T14:17:43.571Z,2.70
2022-10-25T14:20:26.287Z,2.00
2022-10-25T14:23:06.982Z,2.90
2022-10-25T14:25:51.243Z,2.40
2022-10-25T14:28:24.191Z,2.57
2022-10-25T14:30:54.658Z,2.73
2022-10-25T14:33:28.572Z,2.80
2022-10-25T14:36:06.883Z,2.70
2022-10-25T14:38:51.689Z,3.00
2022-10-25T14:41:31.316Z,3.30
2022-10-25T14:43:58.498Z,3.00
2022-10-25T14:46:27.350Z,3.90
2022-10-25T14:48:56.796Z,3.93
2022-10-25T14:51:38.080Z,3.80
2022-10-25T14:54:11.754Z,3.93
2022-10-25T14:56:46.123Z,3.70
2022-10-25T14:59:27.042Z,4.27
2022-10-25T15:01:59.953Z,3.87
2022-10-25T15:04:32.716Z,3.53
2022-10-25T15:06:59.881Z,3.77
2022-10-25T15:09:43.187Z,3.50
2022-10-25T15:12:13.238Z,3.70
2022-10-25T15:14:40.087Z,4.07
2022-10-25T15:17:25.580Z,3.90
2022-10-25T15:20:04.215Z,4.57
2022-10-25T15:22:46.509Z,4.40
2022-10-25T15:25:19.349Z,5.10
2022-10-25T15:27:46.399Z,6.37
2022-10-25T15:30:50.326Z,5.40
2022-10-25T15:33:22.964Z,4.70
2022-10-25T15:36:00.402Z,3.93
2022-10-25T15:38:47.821Z,4.50
2022-10-25T15:41:18.123Z,3.90
2022-10-25T15:43:44.848Z,4.37
2022-10-25T15:46:33.863Z,3.90
2022-10-25T15:49:04.534Z,3.30
2022-10-25T15:51:37.798Z,3.80
2022-10-25T15:54:04.570Z,2.80
2022-10-25T15:56:31.279Z,4.30
2022-10-25T15:59:00.229Z,5.43
2022-10-25T16:01:27.074Z,3.50
2022-10-25T16:03:53.955Z,3.23
2022-10-25T16:06:20.555Z,3.20
2022-10-25T16:08:47.221Z,3.10
2022-10-25T16:11:21.801Z,2.37
2022-10-25T16:13:51.619Z,2.83
2022-10-25T16:16:41.783Z,3.83
2022-10-25T16:19:16.576Z,4.20
2022-10-25T16:21:45.408Z,3.47
2022-10-25T16:24:13.190Z,3.67
2022-10-25T16:26:45.219Z,3.70
2022-10-25T16:29:21.760Z,3.00
2022-10-25T16:31:48.961Z,4.10
2022-10-25T16:34:17.850Z,4.50
2022-10-25T16:36:49.251Z,4.77
2022-10-25T16:39:17.662Z,6.30
2022-10-25T16:41:58.513Z,5.20
2022-10-25T16:44:25.555Z,3.77
2022-10-25T16:46:52.306Z,4.77
2022-10-25T16:49:20.704Z,3.77
2022-10-25T16:51:47.461Z,4.20
2022-10-25T16:54:15.748Z,3.80
2022-10-25T16:56:43.898Z,4.10
2022-10-25T16:59:13.404Z,5.13
2022-10-25T17:01:43.703Z,5.70
2022-10-25T17:04:17.155Z,4.43
2022-10-25T17:06:43.855Z,4.27
2022-10-25T17:09:11.486Z,3.90
2022-10-25T17:11:38.569Z,4.03
2022-10-25T17:14:05.961Z,5.77
2022-10-25T17:16:33.236Z,5.07
2022-10-25T17:19:02.375Z,6.37
2022-10-25T17:21:30.083Z,5.53
2022-10-25T17:23:56.862Z,5.93
2022-10-25T17:26:23.571Z,5.50
2022-10-25T17:28:50.263Z,4.90
2022-10-25T17:31:17.093Z,5.60
2022-10-25T17:33:44.149Z,9.70
2022-10-25T17:36:16.574Z,8.23
2022-10-25T17:38:43.832Z,7.67
2022-10-25T17:41:11.126Z,8.33
2022-10-25T17:43:39.160Z,8.00
2022-10-25T17:46:17.561Z,10.57
2022-10-25T17:48:44.354Z,10.83
2022-10-25T17:51:12.825Z,13.33
2022-10-25T17:53:40.162Z,16.63
2022-10-25T17:56:17.953Z,18.10
2022-10-25T17:58:47.893Z,18.63
2022-10-25T18:01:18.613Z,18.23
2022-10-25T18:03:47.054Z,19.77
2022-10-25T18:06:16.858Z,19.90
2022-10-25T18:08:44.917Z,18.40
2022-10-25T18:11:14.965Z,18.13
2022-10-25T18:13:42.757Z,15.97
2022-10-25T18:16:10.809Z,17.27
2022-10-25T18:18:38.052Z,16.90
2022-10-25T18:21:12.882Z,17.50
2022-10-25T18:23:39.582Z,13.70
2022-10-25T18:26:09.558Z,11.57
2022-10-25T18:28:36.516Z,10.40
2022-10-25T18:31:10.497Z,8.77
2022-10-25T18:33:39.325Z,13.80
2022-10-25T18:36:18.379Z,11.13
2022-10-25T18:38:46.320Z,9.50
2022-10-25T18:41:15.779Z,11.47
2022-10-25T18:43:42.497Z,8.43
2022-10-25T18:46:09.223Z,11.60
2022-10-25T18:48:40.983Z,10.07
2022-10-25T18:51:11.104Z,11.80
2022-10-25T18:53:40.608Z,9.93
2022-10-25T18:56:12.314Z,10.70
2022-10-25T18:58:40.563Z,11.40
2022-10-25T19:01:13.977Z,11.00
2022-10-25T19:03:41.326Z,8.30
2022-10-25T19:06:10.007Z,7.87
2022-10-25T19:08:37.529Z,9.97
2022-10-25T19:11:10.485Z,9.13
2022-10-25T19:13:37.766Z,7.97
2022-10-25T19:16:07.624Z,6.90
2022-10-25T19:18:35.309Z,7.77
2022-10-25T19:21:11.398Z,6.43
2022-10-25T19:23:42.890Z,5.97
2022-10-25T19:26:12.436Z,6.83
2022-10-25T19:28:39.290Z,6.93
2022-10-25T19:31:06.839Z,6.33
2022-10-25T19:33:33.566Z,5.70
2022-10-25T19:36:09.026Z,6.33
2022-10-25T19:38:37.255Z,7.33
2022-10-25T19:41:06.191Z,4.80
2022-10-25T19:43:40.639Z,5.97
2022-10-25T19:46:08.598Z,4.97
2022-10-25T19:48:35.412Z,4.90
2022-10-25T19:51:14.949Z,5.40
2022-10-25T19:53:42.128Z,5.63
2022-10-25T19:56:13.279Z,5.50
2022-10-25T19:58:40.277Z,6.07
2022-10-25T20:01:27.469Z,7.13
2022-10-25T20:03:55.426Z,6.60
2022-10-25T20:06:25.285Z,8.00
2022-10-25T20:08:52.928Z,7.10
2022-10-25T20:11:20.766Z,6.23
2022-10-25T20:13:47.438Z,5.80
2022-10-25T20:16:15.235Z,6.93
2022-10-25T20:18:42.586Z,6.47
2022-10-25T20:21:16.700Z,6.70
2022-10-25T20:23:49.266Z,6.50
2022-10-25T20:26:23.066Z,7.40
2022-10-25T20:28:52.922Z,8.97
2022-10-25T20:31:20.771Z,7.63
2022-10-25T20:33:49.781Z,8.43
2022-10-25T20:36:16.539Z,7.93
2022-10-25T20:38:43.518Z,7.73
2022-10-25T20:41:15.961Z,7.27
2022-10-25T20:43:47.247Z,7.93
2022-10-25T20:46:15.354Z,8.17
2022-10-25T20:48:42.513Z,7.83
2022-10-25T20:51:11.430Z,8.17
2022-10-25T20:53:40.272Z,7.80
2022-10-25T20:56:07.626Z,7.80
2022-10-25T20:58:34.937Z,7.83
2022-10-25T21:01:02.082Z,8.57
2022-10-25T21:03:30.602Z,8.33
2022-10-25T21:05:59.390Z,7.60
2022-10-25T21:08:26.166Z,8.07
2022-10-25T21:10:58.303Z,8.20
2022-10-25T21:13:26.396Z,8.23
2022-10-25T21:15:53.514Z,8.90
2022-10-25T21:18:20.295Z,8.60
2022-10-25T21:20:48.627Z,7.63
2022-10-25T21:23:15.260Z,10.00
2022-10-25T21:25:41.902Z,9.57
2022-10-25T21:28:08.818Z,11.00
2022-10-25T21:30:36.930Z,12.03
2022-10-25T21:33:04.358Z,12.20
2022-10-25T21:35:32.491Z,13.37
2022-10-25T21:38:00.310Z,9.43
2022-10-25T21:40:26.920Z,7.70
2022-10-25T21:42:53.593Z,6.87
2022-10-25T21:45:22.924Z,6.63
2022-10-25T21:47:50.156Z,5.77
2022-10-25T21:50:17.327Z,6.27
2022-10-25T21:52:44.341Z,4.27
2022-10-25T21:55:11.110Z,4.50
2022-10-25T21:57:37.761Z,4.27
2022-10-25T22:00:05.208Z,4.50
2022-10-25T22:02:32.121Z,3.67
2022-10-25T22:04:59.292Z,4.20
2022-10-25T22:07:26.034Z,3.90
2022-10-25T22:09:52.757Z,4.13
2022-10-25T22:12:19.368Z,3.90
2022-10-25T22:14:46.124Z,3.80
2022-10-25T22:17:12.779Z,4.90
2022-10-25T22:19:39.529Z,3.83
2022-10-25T22:22:06.157Z,3.97
2022-10-25T22:24:32.796Z,3.80
2022-10-25T22:26:59.444Z,4.23
2022-10-25T22:29:26.515Z,3.90
